Terminal Aerodrome Forecast
Issued by NWS

Current Version | Previous Version | Text Only | Print | Product List | Glossary On
Versions: 1 2 3 4 5 6 7 8 9 10 11 12 13 14 15 16 17 18 19 20 21 22 23 24 25 26 27 28 29 30 31 32 33 34 35 36 37 38 39 40 41 42 43 44 45 46
000
FTUS45 KGJT 021504 AAC
TAFEGE
TAF AMD
KEGE 021504Z 0215/0312 21005KT 3SM -SN BR SCT002 OVC015
      WS020/24035KT
     FM021900 23015G30KT P6SM VCSH BKN025 OVC040
     FM030300 28015G25KT 4SM -RA BR SCT007 BKN015 OVC025
     FM030600 27011KT 3SM -RASN BR SCT006 BKN015=

USA.gov is the U.S. government's official web portal to all federal, state and local government web resources and services.